Time;durP1;ratioP1;P1;durP2;ratioP2;P2;SDS_P1;SDS_P2;PMS_P1;PMS_P2;Temp;Humidity;BMP_temperature;BMP_pressure;BME280_temperature;BME280_humidity;BME280_pressure;Samples;Min_cycle;Max_cycle;Signal;HPM_P1;HPM_P2
2023/10/31 00:01:58;;;;;;;;;;;;;;;10.36;100.00;99955.63;5013741;28;795;-61
2023/10/31 00:04:25;;;;;;;;;;;;;;;10.31;100.00;99958.78;5013776;28;822;-61
2023/10/31 00:06:52;;;;;;;;;;;;;;;10.20;100.00;99953.25;5013631;28;878;-61
2023/10/31 00:09:18;;;;;;;;;;;;;;;10.18;100.00;99952.06;5013796;28;862;-61
2023/10/31 00:11:45;;;;;;;;;;;;;;;10.25;100.00;99938.25;4996081;28;1220;-61
2023/10/31 00:14:11;;;;;;;;;;;;;;;10.56;100.00;99933.88;5013544;28;909;-61
2023/10/31 00:16:38;;;;;;;;;;;;;;;10.75;100.00;99940.94;5013472;28;1878;-61
2023/10/31 00:19:05;;;;;;;;;;;;;;;10.75;100.00;99937.34;5013458;28;811;-61
2023/10/31 00:21:31;;;;;;;;;;;;;;;10.78;100.00;99936.56;5013678;28;939;-61
2023/10/31 00:23:58;;;;;;;;;;;;;;;11.00;100.00;99942.78;5013187;28;1115;-61
2023/10/31 00:26:25;;;;;;;;;;;;;;;11.15;100.00;99941.53;5013310;28;827;-61
2023/10/31 00:28:51;;;;;;;;;;;;;;;11.22;100.00;99941.50;5013173;28;858;-61
2023/10/31 00:31:18;;;;;;;;;;;;;;;11.24;100.00;99944.66;5013316;28;866;-61
2023/10/31 00:33:45;;;;;;;;;;;;;;;11.19;100.00;99936.00;5013092;28;850;-60
2023/10/31 00:36:11;;;;;;;;;;;;;;;11.16;100.00;99936.78;5013335;28;1970;-61
2023/10/31 00:38:38;;;;;;;;;;;;;;;11.11;100.00;99932.47;5013071;28;873;-61
2023/10/31 00:41:05;;;;;;;;;;;;;;;11.10;100.00;99930.91;5013151;28;842;-61
2023/10/31 00:43:31;;;;;;;;;;;;;;;11.05;100.00;99928.53;5013038;28;839;-61
2023/10/31 00:45:58;;;;;;;;;;;;;;;11.03;100.00;99928.97;5013034;28;858;-61
2023/10/31 00:48:24;;;;;;;;;;;;;;;11.01;100.00;99928.56;5012872;28;866;-61
2023/10/31 00:50:51;;;;;;;;;;;;;;;10.94;100.00;99930.56;4995302;28;898;-61
2023/10/31 00:53:18;;;;;;;;;;;;;;;10.85;100.00;99924.69;5012836;28;816;-61
2023/10/31 00:55:44;;;;;;;;;;;;;;;10.76;100.00;99934.19;5012755;28;1886;-61
2023/10/31 00:58:11;;;;;;;;;;;;;;;10.68;100.00;99924.34;5012789;28;812;-61
2023/10/31 01:00:38;;;;;;;;;;;;;;;10.54;100.00;99927.97;5012746;28;807;-61
2023/10/31 01:03:04;;;;;;;;;;;;;;;10.34;100.00;99918.53;5011851;28;841;-61
2023/10/31 01:05:31;;;;;;;;;;;;;;;10.18;100.00;99916.16;5012579;28;878;-61
2023/10/31 01:07:58;;;;;;;;;;;;;;;10.10;100.00;99922.88;5012740;28;834;-61
2023/10/31 01:10:23;;;;;;;;;;;;;;;10.02;100.00;99920.09;5012744;28;866;-61
2023/10/31 01:12:50;;;;;;;;;;;;;;;9.96;100.00;99918.16;5012593;28;867;-61
2023/10/31 01:15:17;;;;;;;;;;;;;;;9.92;100.00;99920.13;5012365;28;1939;-61
2023/10/31 01:17:44;;;;;;;;;;;;;;;9.92;100.00;99920.13;5012470;28;799;-61
2023/10/31 01:20:11;;;;;;;;;;;;;;;9.85;100.00;99920.91;4994792;28;1189;-61
2023/10/31 01:22:38;;;;;;;;;;;;;;;9.87;100.00;99913.03;5012086;28;1339;-61
2023/10/31 01:25:05;;;;;;;;;;;;;;;9.87;100.00;99918.53;5012411;28;890;-61
2023/10/31 01:27:32;;;;;;;;;;;;;;;9.93;100.00;99911.44;5012550;28;850;-61
2023/10/31 01:29:58;;;;;;;;;;;;;;;9.95;100.00;99922.09;5012280;28;854;-61
2023/10/31 01:32:25;;;;;;;;;;;;;;;10.01;100.00;99918.53;5012293;28;807;-61
2023/10/31 01:34:51;;;;;;;;;;;;;;;10.00;100.00;99922.47;5012061;28;1910;-61
2023/10/31 01:37:20;;;;;;;;;;;;;;;9.97;100.00;99923.28;5012199;28;819;-61
2023/10/31 01:39:46;;;;;;;;;;;;;;;9.85;100.00;99923.66;5012235;28;819;-59
2023/10/31 01:42:17;;;;;;;;;;;;;;;9.77;100.00;99927.59;5012430;28;827;-61
2023/10/31 01:44:44;;;;;;;;;;;;;;;9.78;100.00;99934.72;5012410;28;898;-59
2023/10/31 01:47:11;;;;;;;;;;;;;;;9.85;100.00;99923.66;5012116;28;854;-59
2023/10/31 01:49:38;;;;;;;;;;;;;;;9.96;100.00;99921.72;5012027;28;806;-59
2023/10/31 01:52:05;;;;;;;;;;;;;;;10.07;100.00;99923.66;5012257;28;815;-59
2023/10/31 01:54:33;;;;;;;;;;;;;;;10.15;100.00;99916.94;5011926;28;822;-59
2023/10/31 01:57:01;;;;;;;;;;;;;;;10.16;100.00;99919.31;5011980;28;1946;-59
2023/10/31 01:59:28;;;;;;;;;;;;;;;10.13;100.00;99917.34;5011898;28;821;-59
2023/10/31 02:01:56;;;;;;;;;;;;;;;10.10;100.00;99912.63;4994312;28;1423;-60
2023/10/31 02:04:22;;;;;;;;;;;;;;;10.07;100.00;99910.66;4994174;28;1300;-60
2023/10/31 02:06:49;;;;;;;;;;;;;;;10.02;100.00;99908.28;5012032;28;862;-60
2023/10/31 02:09:15;;;;;;;;;;;;;;;9.98;100.00;99890.94;5012186;28;905;-61
2023/10/31 02:11:42;;;;;;;;;;;;;;;9.90;100.00;99890.16;5011892;28;862;-60
2023/10/31 02:14:09;;;;;;;;;;;;;;;9.85;100.00;99898.81;5012972;28;913;-60
2023/10/31 02:16:36;;;;;;;;;;;;;;;9.73;100.00;99897.25;4998045;28;1964;-60
2023/10/31 02:19:03;;;;;;;;;;;;;;;9.60;100.00;99899.63;5015696;28;885;-60
2023/10/31 02:21:30;;;;;;;;;;;;;;;9.53;100.00;99913.41;5015839;28;923;-61
2023/10/31 02:24:00;;;;;;;;;;;;;;;9.52;100.00;99914.59;5015469;28;1270;-61
2023/10/31 02:26:32;;;;;;;;;;;;;;;9.54;100.00;99912.25;5015551;28;843;-62
2023/10/31 02:28:59;;;;;;;;;;;;;;;9.48;100.00;99907.50;5015513;28;846;-63
2023/10/31 02:31:26;;;;;;;;;;;;;;;9.40;100.00;99907.47;5015469;28;886;-62
2023/10/31 02:33:53;;;;;;;;;;;;;;;9.47;100.00;99897.63;5015291;28;890;-63
2023/10/31 02:36:20;;;;;;;;;;;;;;;9.58;100.00;99902.00;5015313;28;1914;-63
2023/10/31 02:38:47;;;;;;;;;;;;;;;9.70;100.00;99900.00;4997764;28;1326;-63
2023/10/31 02:41:14;;;;;;;;;;;;;;;9.78;100.00;99907.91;5015295;28;842;-63
2023/10/31 02:43:40;;;;;;;;;;;;;;;9.90;100.00;99905.91;5015240;28;871;-63
2023/10/31 02:46:07;;;;;;;;;;;;;;;10.04;100.00;99916.97;5015262;28;898;-64
2023/10/31 02:48:39;;;;;;;;;;;;;;;10.08;100.00;99914.19;4997485;28;1169;-63
2023/10/31 02:51:07;;;;;;;;;;;;;;;10.05;100.00;99907.50;5015342;28;1165;-63
2023/10/31 02:53:34;;;;;;;;;;;;;;;9.90;100.00;99916.97;4997756;28;893;-63
2023/10/31 02:56:00;;;;;;;;;;;;;;;9.94;100.00;99913.03;5015166;28;1945;-62
2023/10/31 02:58:27;;;;;;;;;;;;;;;10.07;100.00;99899.63;4997661;28;1188;-63
2023/10/31 03:00:54;;;;;;;;;;;;;;;10.24;100.00;99903.50;4997817;28;1371;-63
2023/10/31 03:03:20;;;;;;;;;;;;;;;10.36;100.00;99900.34;5014997;28;819;-62
2023/10/31 03:05:46;;;;;;;;;;;;;;;10.46;100.00;99896.00;5014924;28;1205;-63
2023/10/31 03:08:14;;;;;;;;;;;;;;;10.54;100.00;99894.78;5014821;28;950;-62
2023/10/31 03:10:41;;;;;;;;;;;;;;;10.60;100.00;99892.38;5015046;28;841;-63
2023/10/31 03:13:07;;;;;;;;;;;;;;;10.68;100.00;99885.66;5015004;28;819;-62
2023/10/31 03:15:34;;;;;;;;;;;;;;;10.76;100.00;99889.19;5014833;28;1943;-63
2023/10/31 03:18:00;;;;;;;;;;;;;;;10.82;100.00;99880.06;5014659;28;861;-62
2023/10/31 03:20:27;;;;;;;;;;;;;;;10.83;100.00;99881.63;5014656;28;831;-62
2023/10/31 03:22:54;;;;;;;;;;;;;;;10.80;100.00;99874.16;5014292;28;1416;-61
2023/10/31 03:25:20;;;;;;;;;;;;;;;10.73;100.00;99885.25;5013788;28;823;-61
2023/10/31 03:27:47;;;;;;;;;;;;;;;10.69;100.00;99878.13;5014231;28;802;-63
2023/10/31 03:30:14;;;;;;;;;;;;;;;10.66;100.00;99882.50;5014443;28;815;-61
2023/10/31 03:32:41;;;;;;;;;;;;;;;10.60;100.00;99875.81;5014292;28;819;-61
2023/10/31 03:35:07;;;;;;;;;;;;;;;10.57;100.00;99877.41;5014168;28;1910;-60
2023/10/31 03:37:33;;;;;;;;;;;;;;;10.56;100.00;99883.31;5014169;28;897;-62
2023/10/31 03:40:00;;;;;;;;;;;;;;;10.56;100.00;99873.06;5014219;28;847;-62
2023/10/31 03:42:26;;;;;;;;;;;;;;;10.59;100.00;99875.03;5014456;28;877;-62
2023/10/31 03:44:53;;;;;;;;;;;;;;;10.62;100.00;99881.72;5014092;28;858;-62
2023/10/31 03:47:20;;;;;;;;;;;;;;;10.61;100.00;99880.16;5014044;28;837;-62
2023/10/31 03:49:46;;;;;;;;;;;;;;;10.61;100.00;99880.16;5013987;28;882;-60
2023/10/31 03:52:13;;;;;;;;;;;;;;;10.58;100.00;99872.66;5014107;28;819;-62
2023/10/31 03:54:40;;;;;;;;;;;;;;;10.49;100.00;99869.53;5013945;28;808;-62
2023/10/31 03:57:06;;;;;;;;;;;;;;;10.44;100.00;99870.75;5013827;28;1947;-61
2023/10/31 03:59:33;;;;;;;;;;;;;;;10.44;100.00;99870.75;5013922;28;898;-60
2023/10/31 04:01:59;;;;;;;;;;;;;;;10.45;100.00;99869.53;5013859;28;803;-62
2023/10/31 04:04:26;;;;;;;;;;;;;;;10.52;100.00;99869.53;5013769;28;852;-61
2023/10/31 04:06:52;;;;;;;;;;;;;;;10.59;100.00;99866.72;4996093;28;1453;-62
2023/10/31 04:09:19;;;;;;;;;;;;;;;10.68;100.00;99871.81;5013795;28;819;-61
2023/10/31 04:11:46;;;;;;;;;;;;;;;10.76;100.00;99869.84;4996068;28;1240;-59
2023/10/31 04:14:13;;;;;;;;;;;;;;;10.78;100.00;99875.75;5013713;28;887;-61
2023/10/31 04:16:40;;;;;;;;;;;;;;;10.79;100.00;99871.78;5013430;28;1890;-60
2023/10/31 04:19:06;;;;;;;;;;;;;;;10.85;100.00;99880.47;5013568;28;885;-61
2023/10/31 04:21:33;;;;;;;;;;;;;;;10.84;100.00;99879.66;5013626;28;934;-60
2023/10/31 04:24:01;;;;;;;;;;;;;;;10.78;100.00;99876.53;4992338;28;1418;-61
2023/10/31 04:26:28;;;;;;;;;;;;;;;10.80;100.00;99881.66;4993960;28;819;-60
2023/10/31 04:28:55;;;;;;;;;;;;;;;10.86;100.00;99891.13;4993706;28;878;-61
2023/10/31 04:31:21;;;;;;;;;;;;;;;10.93;100.00;99895.81;4993823;28;827;-62
2023/10/31 04:33:48;;;;;;;;;;;;;;;11.00;100.00;99890.25;4993602;28;858;-60
2023/10/31 04:36:15;;;;;;;;;;;;;;;11.05;100.00;99889.81;4993568;28;1922;-61
2023/10/31 04:38:41;;;;;;;;;;;;;;;11.06;100.00;99894.16;4993507;28;872;-61
2023/10/31 04:41:09;;;;;;;;;;;;;;;11.04;100.00;99886.25;4993548;28;870;-62
2023/10/31 04:43:35;;;;;;;;;;;;;;;11.06;100.00;99894.16;4993673;28;861;-62
2023/10/31 04:46:01;;;;;;;;;;;;;;;11.08;100.00;99894.56;4993410;28;863;-62
2023/10/31 04:48:28;;;;;;;;;;;;;;;11.08;100.00;99883.50;4993414;28;894;-62
2023/10/31 04:50:56;;;;;;;;;;;;;;;11.12;100.00;99895.31;4993281;28;893;-62
2023/10/31 04:53:23;;;;;;;;;;;;;;;11.16;100.00;99893.31;4993248;28;831;-62
2023/10/31 04:55:49;;;;;;;;;;;;;;;11.22;100.00;99893.66;4993049;28;1894;-62
2023/10/31 04:58:15;;;;;;;;;;;;;;;11.28;100.00;99900.34;4993270;28;817;-61
2023/10/31 05:00:42;;;;;;;;;;;;;;;11.30;100.00;99903.50;4993125;28;850;-61
2023/10/31 05:03:08;;;;;;;;;;;;;;;11.35;100.00;99907.81;4993022;28;886;-62
2023/10/31 05:05:36;;;;;;;;;;;;;;;11.34;100.00;99906.25;4993054;28;848;-62
2023/10/31 05:08:02;;;;;;;;;;;;;;;11.36;100.00;99904.66;4993069;28;881;-62
2023/10/31 05:10:30;;;;;;;;;;;;;;;11.38;100.00;99905.03;4993132;28;842;-62
2023/10/31 05:12:56;;;;;;;;;;;;;;;11.39;100.00;99903.88;4993030;28;834;-62
2023/10/31 05:15:23;;;;;;;;;;;;;;;11.47;100.00;99899.06;4992858;28;1965;-62
2023/10/31 05:17:49;;;;;;;;;;;;;;;11.59;100.00;99906.09;4992734;28;863;-61
2023/10/31 05:20:16;;;;;;;;;;;;;;;11.71;100.00;99902.03;4991621;28;1173;-62
2023/10/31 05:22:43;;;;;;;;;;;;;;;11.82;100.00;99906.31;4997953;28;1368;-61
2023/10/31 05:25:10;;;;;;;;;;;;;;;11.90;100.00;99904.28;5012483;28;831;-61
2023/10/31 05:27:36;;;;;;;;;;;;;;;11.97;100.00;99912.53;5012317;28;902;-62
2023/10/31 05:30:03;;;;;;;;;;;;;;;12.05;100.00;99919.59;5012456;28;879;-61
2023/10/31 05:32:30;;;;;;;;;;;;;;;12.11;100.00;99908.06;5012153;28;816;-61
2023/10/31 05:34:56;;;;;;;;;;;;;;;12.21;100.00;99915.47;4994636;28;905;-61
2023/10/31 05:37:23;;;;;;;;;;;;;;;12.29;100.00;99913.41;5012176;28;1972;-61
2023/10/31 05:39:50;;;;;;;;;;;;;;;12.32;100.00;99918.16;5012209;28;835;-62
2023/10/31 05:42:20;;;;;;;;;;;;;;;12.34;100.00;99924.84;5012129;28;878;-61
2023/10/31 05:44:47;;;;;;;;;;;;;;;12.34;100.00;99919.31;5012121;28;1055;-61
2023/10/31 05:47:14;;;;;;;;;;;;;;;12.37;100.00;99910.16;5012053;28;905;-61
2023/10/31 05:49:42;;;;;;;;;;;;;;;12.45;100.00;99917.19;5011573;28;887;-61
2023/10/31 05:52:08;;;;;;;;;;;;;;;12.57;100.00;99902.03;5012313;28;886;-62
2023/10/31 05:54:35;;;;;;;;;;;;;;;12.62;100.00;99912.66;5012314;28;837;-62
2023/10/31 05:57:01;;;;;;;;;;;;;;;12.70;100.00;99916.16;5011996;28;1959;-61
2023/10/31 05:59:33;;;;;;;;;;;;;;;12.80;100.00;99917.19;5011984;28;878;-62
2023/10/31 06:02:00;;;;;;;;;;;;;;;12.90;100.00;99901.63;5012113;28;846;-62
2023/10/31 06:04:27;;;;;;;;;;;;;;;12.99;100.00;99907.47;5011881;28;813;-62
2023/10/31 06:06:54;;;;;;;;;;;;;;;13.11;100.00;99917.22;5011881;28;905;-61
2023/10/31 06:09:21;;;;;;;;;;;;;;;13.19;100.00;99921.47;5011886;28;807;-61
2023/10/31 06:11:48;;;;;;;;;;;;;;;13.29;100.00;99915.00;5011918;28;815;-61
2023/10/31 06:14:14;;;;;;;;;;;;;;;13.32;100.00;99910.63;5011812;28;815;-61
2023/10/31 06:16:41;;;;;;;;;;;;;;;13.39;100.00;99910.50;5011733;28;1948;-61
2023/10/31 06:19:08;;;;;;;;;;;;;;;13.50;100.00;99918.69;5012047;28;819;-61
2023/10/31 06:21:34;;;;;;;;;;;;;;;13.54;100.00;99917.41;5011981;28;1024;-61
2023/10/31 06:24:01;;;;;;;;;;;;;;;13.55;100.00;99918.19;5011567;28;1261;-61
2023/10/31 06:26:29;;;;;;;;;;;;;;;13.60;100.00;99912.97;5011673;28;861;-61
2023/10/31 06:28:55;;;;;;;;;;;;;;;13.59;100.00;99910.59;5011742;28;886;-61
2023/10/31 06:31:22;;;;;;;;;;;;;;;13.55;100.00;99912.63;5011504;28;836;-61
2023/10/31 06:33:48;;;;;;;;;;;;;;;13.62;100.00;99918.88;5011739;28;862;-61
2023/10/31 06:36:15;;;;;;;;;;;;;;;13.71;100.00;99917.56;5011577;28;1981;-61
2023/10/31 06:38:41;;;;;;;;;;;;;;;13.82;100.00;99912.63;4994010;28;1185;-61
2023/10/31 06:41:08;;;;;;;;;;;;;;;13.71;100.00;99914.78;5011744;28;882;-61
2023/10/31 06:43:35;;;;;;;;;;;;;;;13.61;100.00;99917.31;5011521;28;839;-61
2023/10/31 06:46:04;;;;;;;;;;;;;;;13.60;100.00;99912.97;5011815;28;874;-61
2023/10/31 06:48:32;;;;;;;;;;;;;;;13.59;100.00;99910.59;5011435;28;871;-61
2023/10/31 06:50:59;;;;;;;;;;;;;;;13.64;100.00;99910.91;4993905;28;858;-61
2023/10/31 06:53:25;;;;;;;;;;;;;;;13.66;100.00;99908.50;5011382;28;879;-61
2023/10/31 06:55:51;;;;;;;;;;;;;;;13.68;100.00;99910.88;5011468;28;1953;-61
2023/10/31 06:58:17;;;;;;;;;;;;;;;13.84;100.00;99912.97;5011434;28;863;-61
2023/10/31 07:00:44;;;;;;;;;;;;;;;13.93;100.00;99904.09;5011729;28;807;-61
2023/10/31 07:03:14;;;;;;;;;;;;;;;14.02;100.00;99913.47;5014897;28;819;-61
2023/10/31 07:05:42;;;;;;;;;;;;;;;14.17;100.00;99916.78;5014859;28;905;-60
2023/10/31 07:08:09;;;;;;;;;;;;;;;14.43;100.00;99917.13;5014776;28;866;-61
2023/10/31 07:10:35;;;;;;;;;;;;;;;14.50;100.00;99914.19;5014977;28;823;-61
2023/10/31 07:13:02;;;;;;;;;;;;;;;14.59;100.00;99911.66;5014740;28;890;-61
2023/10/31 07:15:29;;;;;;;;;;;;;;;14.73;100.00;99913.38;5014534;28;1894;-61
2023/10/31 07:17:55;;;;;;;;;;;;;;;14.82;100.00;99912.81;5014653;28;850;-61
2023/10/31 07:20:22;;;;;;;;;;;;;;;14.90;100.00;99909.44;5014525;28;852;-61
2023/10/31 07:22:48;;;;;;;;;;;;;;;14.87;100.00;99912.28;5014735;28;1367;-61
2023/10/31 07:25:15;;;;;;;;;;;;;;;14.94;100.00;99920.50;5014782;28;843;-61
2023/10/31 07:27:41;;;;;;;;;;;;;;;15.11;100.00;99918.56;5014444;28;866;-61
2023/10/31 07:30:08;;;;;;;;;;;;;;;15.21;100.00;99917.56;4996777;28;1370;-61
2023/10/31 07:32:35;;;;;;;;;;;;;;;15.30;100.00;99914.94;5014371;28;862;-61
2023/10/31 07:35:03;;;;;;;;;;;;;;;15.22;100.00;99912.75;5014286;28;787;-61
2023/10/31 07:37:29;;;;;;;;;;;;;;;15.30;100.00;99914.19;4996668;28;1248;-61
2023/10/31 07:39:56;;;;;;;;;;;;;;;15.46;100.00;99911.41;5014554;28;811;-61
2023/10/31 07:42:22;;;;;;;;;;;;;;;15.59;100.00;99913.50;5014054;28;857;-61
2023/10/31 07:44:50;;;;;;;;;;;;;;;15.61;100.00;99909.06;5014184;28;867;-61
2023/10/31 07:47:17;;;;;;;;;;;;;;;15.78;100.00;99906.31;5014120;28;818;-61
2023/10/31 07:49:44;;;;;;;;;;;;;;;15.75;100.00;99907.19;5014035;28;851;-61
2023/10/31 07:52:11;;;;;;;;;;;;;;;15.73;100.00;99912.44;5013997;28;822;-61
2023/10/31 07:54:41;;;;;;;;;;;;;;;15.70;100.00;99905.66;5013916;28;885;-61
2023/10/31 07:57:07;;;;;;;;;;;;;;;15.66;100.00;99907.75;4996299;28;1886;-61
2023/10/31 07:59:34;;;;;;;;;;;;;;;15.75;100.00;99910.00;5013751;28;811;-61
2023/10/31 08:02:02;;;;;;;;;;;;;;;15.87;100.00;99915.66;5013805;28;913;-61
2023/10/31 08:04:29;;;;;;;;;;;;;;;15.93;100.00;99913.88;5013706;28;842;-61
2023/10/31 08:06:56;;;;;;;;;;;;;;;15.97;100.00;99913.78;5013718;28;842;-61
2023/10/31 08:09:23;;;;;;;;;;;;;;;15.98;100.00;99906.22;5013674;28;826;-61
2023/10/31 08:11:49;;;;;;;;;;;;;;;16.05;100.00;99909.59;5013272;28;870;-61
2023/10/31 08:14:16;;;;;;;;;;;;;;;16.41;100.00;99907.88;5013759;28;823;-61
2023/10/31 08:16:42;;;;;;;;;;;;;;;16.62;100.00;99903.72;5013522;28;1881;-61
2023/10/31 08:19:10;;;;;;;;;;;;;;;16.80;100.00;99897.63;5013431;28;897;-61
2023/10/31 08:21:39;;;;;;;;;;;;;;;16.57;100.00;99898.69;5013734;28;1055;-61
2023/10/31 08:24:06;;;;;;;;;;;;;;;16.67;100.00;99894.81;4992289;28;1244;-61
2023/10/31 08:26:35;;;;;;;;;;;;;;;16.88;100.00;99896.25;4992457;28;1327;-61
2023/10/31 08:29:03;;;;;;;;;;;;;;;17.02;100.00;99887.41;4993652;28;831;-61
2023/10/31 08:31:29;;;;;;;;;;;;;;;16.92;100.00;99882.97;4992422;28;1165;-61
2023/10/31 08:33:56;;;;;;;;;;;;;;;17.27;100.00;99885.88;4993614;28;895;-61
2023/10/31 08:36:23;;;;;;;;;;;;;;;17.85;100.00;99885.63;4993525;28;1910;-61
2023/10/31 08:38:49;;;;;;;;;;;;;;;18.12;100.00;99882.31;4993545;28;830;-60
2023/10/31 08:41:19;;;;;;;;;;;;;;;18.42;100.00;99884.91;4993445;28;838;-60
2023/10/31 08:43:46;;;;;;;;;;;;;;;18.38;100.00;99882.22;4993481;28;822;-61
2023/10/31 08:46:13;;;;;;;;;;;;;;;18.43;100.00;99878.84;4993456;28;829;-60
2023/10/31 08:48:40;;;;;;;;;;;;;;;18.77;100.00;99874.41;4993427;28;815;-60
2023/10/31 09:22:08;;;;;;;;;;;;;;;18.95;100.00;99820.56;5142081;23;1759;-58
2023/10/31 09:24:35;;;;;;;;;;;;;;;19.73;100.00;99819.41;5011675;28;866;-58
2023/10/31 09:27:02;;;;;;;;;;;;;;;19.80;100.00;99818.34;5012580;28;986;-58
2023/10/31 09:29:29;;;;;;;;;;;;;;;19.07;100.00;99814.06;5012457;28;1082;-59
2023/10/31 09:31:56;;;;;;;;;;;;;;;18.70;100.00;99815.88;5012667;28;839;-58
2023/10/31 09:34:22;;;;;;;;;;;;;;;19.09;100.00;99810.81;4995074;28;961;-58
2023/10/31 09:36:48;;;;;;;;;;;;;;;19.19;100.00;99804.00;5012508;28;1973;-58
2023/10/31 09:39:15;;;;;;;;;;;;;;;19.49;100.00;99799.56;5012254;28;1345;-58
2023/10/31 09:41:42;;;;;;;;;;;;;;;19.59;100.00;99803.16;5012272;28;841;-58
2023/10/31 09:44:09;;;;;;;;;;;;;;;19.71;100.00;99793.06;5012078;28;1346;-59
2023/10/31 09:46:35;;;;;;;;;;;;;;;20.06;100.00;99793.56;5012144;28;1300;-59
2023/10/31 09:49:02;;;;;;;;;;;;;;;20.20;100.00;99794.94;5012191;28;877;-59
2023/10/31 09:51:29;;;;;;;;;;;;;;;20.26;100.00;99781.84;5012000;28;814;-59
2023/10/31 09:53:57;;;;;;;;;;;;;;;20.28;100.00;99778.56;5012121;28;826;-59
2023/10/31 09:56:24;;;;;;;;;;;;;;;20.33;100.00;99773.13;5012020;28;1886;-59
2023/10/31 09:58:51;;;;;;;;;;;;;;;20.37;100.00;99770.91;5012093;28;820;-59
2023/10/31 10:01:18;;;;;;;;;;;;;;;20.59;100.00;99764.34;5012426;28;806;-59
2023/10/31 10:03:45;;;;;;;;;;;;;;;20.90;100.00;99760.47;4994841;28;1264;-59
2023/10/31 10:06:13;;;;;;;;;;;;;;;20.89;100.00;99759.72;5011920;28;1240;-59
2023/10/31 10:08:40;;;;;;;;;;;;;;;21.11;100.00;99753.06;5012384;28;939;-59
2023/10/31 10:11:06;;;;;;;;;;;;;;;21.33;100.00;99750.72;5012426;28;795;-59
2023/10/31 10:13:33;;;;;;;;;;;;;;;21.45;100.00;99742.56;5012055;28;843;-59
2023/10/31 10:16:00;;;;;;;;;;;;;;;21.66;100.00;99733.03;5011983;28;1947;-59
2023/10/31 10:18:27;;;;;;;;;;;;;;;21.88;100.00;99738.31;5011906;28;893;-58
2023/10/31 10:21:01;;;;;;;;;;;;;;;21.91;100.00;99728.13;5011772;28;1421;-59
2023/10/31 10:23:27;;;;;;;;;;;;;;;21.87;100.00;99724.72;5011737;28;886;-58
2023/10/31 10:25:55;;;;;;;;;;;;;;;22.01;100.00;99716.31;5012162;28;803;-59
2023/10/31 10:28:21;;;;;;;;;;;;;;;22.15;100.00;99706.31;5011734;28;904;-59
2023/10/31 10:30:48;;;;;;;;;;;;;;;22.33;100.00;99702.56;5011707;28;934;-59
2023/10/31 10:33:15;;;;;;;;;;;;;;;22.67;100.00;99697.47;5011591;28;930;-59
2023/10/31 10:35:42;;;;;;;;;;;;;;;22.77;100.00;99695.31;5013593;28;1917;-59
2023/10/31 10:38:15;;;;;;;;;;;;;;;22.76;100.00;99685.28;5015510;28;889;-59
2023/10/31 10:40:46;;;;;;;;;;;;;;;22.56;100.00;99681.16;5015471;28;938;-59
2023/10/31 10:43:22;;;;;;;;;;;;;;;22.61;100.00;99676.88;5015380;28;826;-59
2023/10/31 10:52:01;;;;;;;;;;;;;;;23.15;100.00;99663.34;5034265;28;880;-58
2023/10/31 10:54:35;;;;;;;;;;;;;;;23.17;100.00;99660.81;5034896;28;946;-58
2023/10/31 10:57:09;;;;;;;;;;;;;;;23.35;100.00;99659.72;5034683;28;1895;-58
2023/10/31 10:59:42;;;;;;;;;;;;;;;23.44;100.00;99653.91;5034743;28;938;-58
2023/10/31 11:02:10;;;;;;;;;;;;;;;23.75;100.00;99654.53;5034675;28;973;-58
2023/10/31 11:04:36;;;;;;;;;;;;;;;23.78;100.00;99653.53;5034655;28;974;-59
2023/10/31 11:07:02;;;;;;;;;;;;;;;23.87;100.00;99639.25;5034842;28;878;-58
2023/10/31 11:09:30;;;;;;;;;;;;;;;24.10;100.00;99642.28;5034579;28;908;-58
2023/10/31 11:11:57;;;;;;;;;;;;;;;24.25;100.00;99631.63;5034599;28;854;-58
2023/10/31 11:14:25;;;;;;;;;;;;;;;24.35;100.00;99633.00;5034830;28;795;-58
2023/10/31 11:16:56;;;;;;;;;;;;;;;24.37;100.00;99624.03;5034478;28;1930;-58
2023/10/31 11:19:24;;;;;;;;;;;;;;;24.47;100.00;99616.88;5034702;28;869;-58
2023/10/31 11:21:58;;;;;;;;;;;;;;;24.70;100.00;99605.75;5034296;28;1175;-58
2023/10/31 11:24:28;;;;;;;;;;;;;;;25.06;100.00;99607.72;5034371;28;833;-59
2023/10/31 11:26:58;;;;;;;;;;;;;;;25.29;100.00;99602.19;5034293;28;907;-59
2023/10/31 11:29:25;;;;;;;;;;;;;;;25.22;100.00;99594.97;5034271;28;850;-59
2023/10/31 11:31:54;;;;;;;;;;;;;;;25.06;100.00;99584.34;5034305;28;802;-58
2023/10/31 11:34:20;;;;;;;;;;;;;;;24.86;100.00;99583.25;5016532;28;940;-58
2023/10/31 11:36:47;;;;;;;;;;;;;;;25.01;100.00;99583.03;5034010;28;1960;-58
2023/10/31 11:39:16;;;;;;;;;;;;;;;25.28;100.00;99580.84;5034105;28;1043;-58
2023/10/31 11:41:50;;;;;;;;;;;;;;;25.73;100.00;99580.91;5016217;28;1494;-58
2023/10/31 11:44:17;;;;;;;;;;;;;;;25.82;100.00;99569.34;5033964;28;958;-59
2023/10/31 11:46:47;;;;;;;;;;;;;;;25.74;99.12;99579.63;5033236;28;878;-58
2023/10/31 11:49:14;;;;;;;;;;;;;;;25.77;97.14;99572.94;5033851;28;1049;-59
2023/10/31 11:51:39;;;;;;;;;;;;;;;26.04;97.33;99562.94;5033820;28;831;-58
2023/10/31 11:54:08;;;;;;;;;;;;;;;26.18;96.73;99563.97;5033876;28;897;-59
2023/10/31 11:56:34;;;;;;;;;;;;;;;26.31;95.38;99562.63;5033617;28;1890;-58
2023/10/31 11:59:02;;;;;;;;;;;;;;;26.25;84.13;99551.34;5033704;28;986;-58
2023/10/31 12:01:29;;;;;;;;;;;;;;;26.31;81.42;99562.63;5016012;28;897;-58
2023/10/31 12:03:55;;;;;;;;;;;;;;;26.48;80.14;99554.88;5033603;28;830;-58
2023/10/31 12:06:22;;;;;;;;;;;;;;;26.52;78.85;99538.38;5033460;28;941;-58
2023/10/31 12:08:48;;;;;;;;;;;;;;;26.77;77.91;99547.06;5033429;28;933;-59
2023/10/31 12:11:20;;;;;;;;;;;;;;;27.07;73.26;99530.16;5033505;28;926;-58
2023/10/31 12:13:54;;;;;;;;;;;;;;;26.93;67.48;99540.56;5033579;28;926;-58
2023/10/31 12:16:23;;;;;;;;;;;;;;;26.88;65.75;99527.19;5033280;28;1914;-58
2023/10/31 12:18:54;;;;;;;;;;;;;;;26.98;64.23;99522.75;5033273;28;862;-58
2023/10/31 12:21:20;;;;;;;;;;;;;;;27.19;63.98;99517.47;5008927;28;1169;-58
2023/10/31 12:23:46;;;;;;;;;;;;;;;27.63;60.33;99529.84;4994073;28;810;-58
2023/10/31 12:26:15;;;;;;;;;;;;;;;27.68;59.18;99523.34;4994467;28;827;-58
2023/10/31 12:28:41;;;;;;;;;;;;;;;27.48;59.32;99518.84;4993806;28;933;-58
2023/10/31 12:31:08;;;;;;;;;;;;;;;27.43;57.54;99513.97;4993809;28;954;-59
2023/10/31 12:33:35;;;;;;;;;;;;;;;27.15;58.45;99510.53;4994043;28;901;-58
2023/10/31 12:36:02;;;;;;;;;;;;;;;27.08;58.64;99501.28;4993669;28;1919;-58
2023/10/31 12:38:29;;;;;;;;;;;;;;;27.25;57.52;99506.91;4993874;28;850;-58
2023/10/31 12:40:57;;;;;;;;;;;;;;;27.28;56.12;99499.38;4993773;28;847;-58
2023/10/31 12:43:25;;;;;;;;;;;;;;;27.18;55.67;99495.31;4993553;28;839;-58
2023/10/31 12:45:52;;;;;;;;;;;;;;;27.35;55.78;99495.22;4993777;28;953;-58
2023/10/31 12:48:23;;;;;;;;;;;;;;;27.41;55.31;99488.19;4993517;28;838;-58
2023/10/31 12:50:50;;;;;;;;;;;;;;;27.35;55.68;99481.03;4993425;28;885;-58
2023/10/31 12:53:23;;;;;;;;;;;;;;;27.54;55.11;99487.56;4993470;28;913;-58
2023/10/31 12:55:50;;;;;;;;;;;;;;;27.66;52.93;99489.03;4993230;28;1945;-58
2023/10/31 12:58:23;;;;;;;;;;;;;;;27.38;50.64;99480.75;4993235;28;878;-58
2023/10/31 13:00:50;;;;;;;;;;;;;;;27.40;48.72;99477.41;4993234;28;1293;-58
2023/10/31 13:03:16;;;;;;;;;;;;;;;27.26;47.70;99467.94;4993182;28;808;-58
2023/10/31 13:05:42;;;;;;;;;;;;;;;27.03;46.42;99462.38;4993542;28;830;-58
2023/10/31 13:08:15;;;;;;;;;;;;;;;27.08;46.32;99466.50;4993117;28;861;-58
2023/10/31 13:10:43;;;;;;;;;;;;;;;27.02;46.15;99460.09;4993100;28;909;-58
2023/10/31 13:13:10;;;;;;;;;;;;;;;27.00;45.59;99446.44;4993002;28;1008;-58
2023/10/31 13:15:37;;;;;;;;;;;;;;;26.90;45.75;99456.53;4992940;28;1882;-58
2023/10/31 13:18:05;;;;;;;;;;;;;;;26.87;45.98;99443.44;5008006;28;914;-58
2023/10/31 13:20:32;;;;;;;;;;;;;;;26.73;45.27;99430.34;4993169;28;905;-58
2023/10/31 13:22:58;;;;;;;;;;;;;;;26.71;46.11;99438.63;5028827;28;1363;-58
2023/10/31 13:25:27;;;;;;;;;;;;;;;26.91;45.75;99440.28;5032041;28;1164;-58
2023/10/31 13:27:54;;;;;;;;;;;;;;;26.94;46.83;99437.19;5032111;28;946;-58
2023/10/31 13:30:23;;;;;;;;;;;;;;;26.67;49.55;99444.56;5031984;28;913;-58
2023/10/31 13:32:50;;;;;;;;;;;;;;;26.25;52.89;99441.63;5032076;28;909;-58
2023/10/31 13:35:16;;;;;;;;;;;;;;;25.59;55.70;99435.56;5031979;28;921;-57